createdAt,value
2022-09-24T00:00:30.797Z,0.00
2022-09-24T00:00:53.680Z,0.00
2022-09-24T00:01:18.444Z,0.00
2022-09-24T00:01:50.656Z,0.00
2022-09-24T00:02:22.778Z,0.00
2022-09-24T00:02:55.090Z,0.00
2022-09-24T00:03:26.016Z,0.00
2022-09-24T00:03:58.534Z,0.00
2022-09-24T00:04:30.649Z,0.00
2022-09-24T00:04:53.335Z,0.00
2022-09-24T00:05:15.671Z,0.00
2022-09-24T00:05:50.702Z,0.00
2022-09-24T00:06:22.651Z,0.00
2022-09-24T00:06:54.803Z,0.00
2022-09-24T00:07:26.186Z,0.00
2022-09-24T00:07:58.491Z,0.00
2022-09-24T00:08:30.717Z,0.00
2022-09-24T00:08:53.499Z,0.00
2022-09-24T00:09:15.829Z,0.00
2022-09-24T00:09:50.656Z,0.00
2022-09-24T00:10:22.716Z,0.00
2022-09-24T00:10:54.709Z,0.00
2022-09-24T00:11:26.086Z,0.00
2022-09-24T00:11:58.511Z,0.00
2022-09-24T00:12:31.055Z,0.00
2022-09-24T00:12:53.321Z,0.00
2022-09-24T00:13:15.832Z,0.00
2022-09-24T00:13:50.604Z,0.00
2022-09-24T00:14:22.520Z,0.00
2022-09-24T00:14:54.881Z,0.00
2022-09-24T00:15:26.046Z,0.00
2022-09-24T00:15:58.761Z,0.00
2022-09-24T00:16:30.656Z,0.00
2022-09-24T00:16:53.195Z,0.00
2022-09-24T00:17:15.667Z,0.00
2022-09-24T00:17:56.284Z,0.00
2022-09-24T00:18:22.612Z,0.00
2022-09-24T00:18:54.529Z,0.00
2022-09-24T00:19:26.078Z,0.00
2022-09-24T00:19:58.571Z,0.00
2022-09-24T00:20:30.683Z,0.00
2022-09-24T00:20:53.640Z,0.00
2022-09-24T00:21:16.060Z,0.00
2022-09-24T00:21:54.127Z,0.00
2022-09-24T00:22:22.797Z,0.00
2022-09-24T00:22:54.495Z,0.00
2022-09-24T00:23:26.009Z,0.00
2022-09-24T00:23:58.583Z,0.00
2022-09-24T00:24:30.799Z,0.00
2022-09-24T00:24:54.906Z,0.00
2022-09-24T00:25:17.287Z,0.00
2022-09-24T00:25:50.620Z,0.00
2022-09-24T00:26:22.551Z,0.00
2022-09-24T00:26:54.641Z,0.00
2022-09-24T00:27:26.147Z,0.00
2022-09-24T00:27:58.559Z,0.00
2022-09-24T00:28:30.761Z,0.00
2022-09-24T00:28:53.448Z,0.00
2022-09-24T00:29:15.696Z,0.00
2022-09-24T00:29:50.806Z,0.00
2022-09-24T00:30:22.644Z,0.00
2022-09-24T00:30:54.846Z,0.00
2022-09-24T00:31:26.251Z,0.00
2022-09-24T00:31:58.644Z,0.00
2022-09-24T00:32:31.299Z,0.00
2022-09-24T00:32:53.656Z,0.00
2022-09-24T00:33:15.997Z,0.00
2022-09-24T00:33:50.554Z,0.00
2022-09-24T00:34:22.497Z,0.00
2022-09-24T00:34:54.579Z,0.00
2022-09-24T00:35:25.989Z,0.00
2022-09-24T00:35:58.593Z,0.00
2022-09-24T00:36:30.675Z,0.00
2022-09-24T00:36:53.834Z,0.00
2022-09-24T00:37:16.039Z,0.00
2022-09-24T00:37:50.613Z,0.00
2022-09-24T00:38:25.084Z,0.00
2022-09-24T00:38:54.845Z,0.00
2022-09-24T00:39:26.003Z,0.00
2022-09-24T00:39:58.561Z,0.00
2022-09-24T00:40:30.711Z,0.00
2022-09-24T00:40:53.741Z,0.00
2022-09-24T00:41:16.297Z,0.00
2022-09-24T00:41:51.138Z,0.00
2022-09-24T00:42:22.478Z,0.00
2022-09-24T00:42:58.391Z,0.00
2022-09-24T00:43:26.109Z,0.00
2022-09-24T00:43:58.551Z,0.00
2022-09-24T00:44:31.377Z,0.00
2022-09-24T00:44:54.249Z,0.00
2022-09-24T00:45:17.770Z,0.00
2022-09-24T00:45:51.532Z,0.00
2022-09-24T00:46:22.850Z,0.00
2022-09-24T00:46:55.858Z,0.00
2022-09-24T00:47:26.281Z,0.00
2022-09-24T00:47:58.957Z,0.00
2022-09-24T00:48:30.755Z,0.00
2022-09-24T00:48:53.633Z,0.00
2022-09-24T00:49:16.500Z,0.00
2022-09-24T00:49:50.760Z,0.00
2022-09-24T00:50:23.476Z,0.00
2022-09-24T00:50:54.505Z,0.00
2022-09-24T00:51:26.285Z,0.00
2022-09-24T00:51:58.464Z,0.00
2022-09-24T00:52:30.824Z,0.00
2022-09-24T00:52:53.478Z,0.00
2022-09-24T00:53:16.088Z,0.00
2022-09-24T00:53:51.600Z,0.00
2022-09-24T00:54:22.655Z,0.00
2022-09-24T00:54:55.202Z,0.00
2022-09-24T00:55:26.071Z,0.00
2022-09-24T00:55:58.818Z,0.00
2022-09-24T00:56:32.110Z,0.00
2022-09-24T00:56:53.285Z,0.00
2022-09-24T00:57:15.790Z,0.00
2022-09-24T00:57:51.082Z,0.00
2022-09-24T00:58:23.254Z,0.00
2022-09-24T00:58:54.876Z,0.00
2022-09-24T00:59:26.101Z,0.00
2022-09-24T00:59:58.561Z,0.00
2022-09-24T01:00:30.826Z,0.00
2022-09-24T01:00:53.532Z,0.00
2022-09-24T01:01:15.940Z,0.00
2022-09-24T01:01:50.819Z,0.00
2022-09-24T01:02:24.079Z,0.00
2022-09-24T01:02:55.265Z,0.00
2022-09-24T01:03:27.852Z,0.00
2022-09-24T01:03:59.177Z,0.00
2022-09-24T01:04:30.544Z,0.00
2022-09-24T01:04:56.442Z,0.00
2022-09-24T01:05:16.443Z,0.00
2022-09-24T01:05:50.864Z,0.00
2022-09-24T01:06:23.068Z,0.00
2022-09-24T01:06:55.206Z,0.00
2022-09-24T01:07:27.566Z,0.00
2022-09-24T01:07:58.697Z,0.00
2022-09-24T01:08:31.456Z,0.00
2022-09-24T01:08:54.199Z,0.00
2022-09-24T01:09:16.489Z,0.00
2022-09-24T01:09:50.563Z,0.00
2022-09-24T01:10:22.612Z,0.00
2022-09-24T01:10:57.201Z,0.00
2022-09-24T01:11:26.823Z,0.00
2022-09-24T01:11:58.849Z,0.00
2022-09-24T01:12:30.600Z,0.00
2022-09-24T01:12:53.231Z,0.00
2022-09-24T01:13:15.843Z,0.00
2022-09-24T01:13:50.866Z,0.00
2022-09-24T01:14:23.288Z,0.00
2022-09-24T01:14:55.513Z,0.00
2022-09-24T01:15:26.955Z,0.00
2022-09-24T01:15:59.131Z,0.00
2022-09-24T01:16:30.730Z,0.00
2022-09-24T01:16:53.283Z,0.00
2022-09-24T01:17:15.773Z,0.00
2022-09-24T01:17:53.354Z,0.00
2022-09-24T01:18:22.675Z,0.00
2022-09-24T01:18:54.822Z,0.00
2022-09-24T01:19:25.962Z,0.00
2022-09-24T01:20:00.125Z,0.00
2022-09-24T01:20:30.632Z,0.00
2022-09-24T01:20:53.329Z,0.00
2022-09-24T01:21:17.253Z,0.00
2022-09-24T01:21:50.587Z,0.00
2022-09-24T01:22:23.761Z,0.00
2022-09-24T01:22:54.602Z,0.00
2022-09-24T01:23:26.401Z,0.00
2022-09-24T01:23:58.644Z,0.00
2022-09-24T01:24:30.569Z,0.00
2022-09-24T01:24:53.244Z,0.00
2022-09-24T01:25:15.747Z,0.00
2022-09-24T01:25:50.747Z,0.00
2022-09-24T01:26:22.545Z,0.00
2022-09-24T01:26:57.753Z,0.00
2022-09-24T01:27:27.167Z,0.00
2022-09-24T01:27:59.261Z,0.00
2022-09-24T01:28:30.679Z,0.00
2022-09-24T01:28:53.253Z,0.00
2022-09-24T01:29:15.861Z,0.00
2022-09-24T01:29:50.776Z,0.00
2022-09-24T01:30:24.742Z,0.00
2022-09-24T01:30:58.960Z,0.00
2022-09-24T01:31:21.527Z,0.00
2022-09-24T01:31:58.739Z,0.00
2022-09-24T01:32:32.644Z,0.00
2022-09-24T01:32:56.022Z,0.00
2022-09-24T01:33:18.410Z,0.00
2022-09-24T01:33:50.583Z,0.00
2022-09-24T01:34:22.570Z,0.00
2022-09-24T01:34:54.571Z,0.00
2022-09-24T01:35:26.162Z,0.00
2022-09-24T01:35:58.429Z,0.00
2022-09-24T01:36:30.572Z,0.00
2022-09-24T01:36:53.263Z,0.00
2022-09-24T01:37:15.704Z,0.00
2022-09-24T01:37:50.584Z,0.00
2022-09-24T01:38:22.546Z,0.00
2022-09-24T01:38:54.708Z,0.00
2022-09-24T01:39:26.024Z,0.00
2022-09-24T01:39:58.536Z,0.00
2022-09-24T01:40:30.722Z,0.00
2022-09-24T01:40:53.328Z,0.00
2022-09-24T01:41:15.733Z,0.00
2022-09-24T01:41:50.549Z,0.00
2022-09-24T01:42:22.572Z,0.00
2022-09-24T01:42:54.479Z,0.00
2022-09-24T01:43:26.189Z,0.00
2022-09-24T01:43:58.478Z,0.00
2022-09-24T01:44:30.726Z,0.00
2022-09-24T01:44:53.192Z,0.00
2022-09-24T01:45:15.649Z,0.00
2022-09-24T01:45:50.538Z,0.00
2022-09-24T01:46:22.607Z,0.00
2022-09-24T01:46:54.688Z,0.00
2022-09-24T01:47:32.191Z,0.00
2022-09-24T01:47:58.586Z,0.00
2022-09-24T01:48:30.628Z,0.00
2022-09-24T01:48:54.433Z,0.00
2022-09-24T01:49:16.594Z,0.00
2022-09-24T01:49:52.076Z,0.00
2022-09-24T01:50:22.532Z,0.00
2022-09-24T01:50:54.630Z,0.00
2022-09-24T01:51:26.040Z,0.00
2022-09-24T01:51:58.554Z,0.00
2022-09-24T01:52:30.494Z,0.00
2022-09-24T01:52:53.267Z,0.00
2022-09-24T01:53:15.740Z,0.00
2022-09-24T01:53:50.497Z,0.00
2022-09-24T01:54:22.553Z,0.00
2022-09-24T01:54:54.448Z,0.00
2022-09-24T01:55:26.062Z,0.00
2022-09-24T01:55:58.490Z,0.00
2022-09-24T01:56:32.435Z,0.00
2022-09-24T01:56:53.708Z,0.00
2022-09-24T01:57:16.339Z,0.00
2022-09-24T01:57:51.155Z,0.00
2022-09-24T01:58:22.512Z,0.00
2022-09-24T01:58:54.392Z,0.00
2022-09-24T01:59:26.004Z,0.00
2022-09-24T01:59:58.558Z,0.00
2022-09-24T02:00:30.550Z,0.00
2022-09-24T02:00:59.734Z,0.00
2022-09-24T02:01:15.744Z,0.00
2022-09-24T02:01:50.981Z,0.00
2022-09-24T02:02:22.578Z,0.00
2022-09-24T02:03:02.513Z,0.00
2022-09-24T02:03:25.626Z,0.00
2022-09-24T02:03:59.159Z,0.00
2022-09-24T02:04:30.902Z,0.00
2022-09-24T02:04:53.538Z,0.00
2022-09-24T02:05:16.226Z,0.00
2022-09-24T02:05:50.566Z,0.00
2022-09-24T02:06:22.725Z,0.00
2022-09-24T02:06:54.799Z,0.00
2022-09-24T02:07:26.659Z,0.00
2022-09-24T02:07:58.508Z,0.00
2022-09-24T02:08:30.695Z,0.00
2022-09-24T02:08:53.430Z,0.00
2022-09-24T02:09:15.734Z,0.00
2022-09-24T02:09:50.384Z,0.00
2022-09-24T02:10:23.006Z,0.00
2022-09-24T02:11:05.137Z,0.00
2022-09-24T02:11:25.050Z,0.00
2022-09-24T02:11:58.665Z,0.00
2022-09-24T02:12:30.823Z,0.00
2022-09-24T02:12:53.571Z,0.00
2022-09-24T02:13:16.313Z,0.00
2022-09-24T02:13:50.443Z,0.00
2022-09-24T02:14:23.716Z,0.00
2022-09-24T02:14:54.850Z,0.00
2022-09-24T02:15:30.203Z,0.00
2022-09-24T02:15:58.528Z,0.00
2022-09-24T02:16:30.999Z,0.00
2022-09-24T02:16:59.074Z,0.00
2022-09-24T02:17:16.681Z,0.00
2022-09-24T02:17:57.798Z,0.00
2022-09-24T02:18:20.036Z,0.00
2022-09-24T02:18:54.477Z,0.00
2022-09-24T02:19:26.425Z,0.00
2022-09-24T02:19:58.585Z,0.00
2022-09-24T02:20:30.395Z,0.00
2022-09-24T02:20:53.106Z,0.00
2022-09-24T02:21:15.579Z,0.00
2022-09-24T02:21:50.589Z,0.00
2022-09-24T02:22:25.881Z,0.00
2022-09-24T02:22:54.548Z,0.00
2022-09-24T02:23:26.000Z,0.00
2022-09-24T02:23:58.594Z,0.00
2022-09-24T02:24:30.485Z,0.00
2022-09-24T02:24:53.178Z,0.00
2022-09-24T02:25:15.617Z,0.00
2022-09-24T02:25:50.614Z,0.00
2022-09-24T02:26:22.541Z,0.00
2022-09-24T02:26:54.346Z,0.00
2022-09-24T02:27:25.961Z,0.00
2022-09-24T02:27:58.475Z,0.00
2022-09-24T02:28:30.553Z,0.00
2022-09-24T02:28:53.227Z,0.00
2022-09-24T02:29:15.674Z,0.00
2022-09-24T02:29:50.655Z,0.00
2022-09-24T02:30:22.608Z,0.00
2022-09-24T02:30:54.422Z,0.00
2022-09-24T02:31:26.091Z,0.00
2022-09-24T02:31:58.719Z,0.00
2022-09-24T02:32:30.632Z,0.00
2022-09-24T02:32:56.134Z,0.00
2022-09-24T02:33:16.153Z,0.00
2022-09-24T02:33:50.580Z,0.00
2022-09-24T02:34:22.369Z,0.00
2022-09-24T02:34:54.631Z,0.00
2022-09-24T02:35:26.338Z,0.00
2022-09-24T02:35:58.413Z,0.00
2022-09-24T02:36:30.401Z,0.00
2022-09-24T02:36:53.406Z,0.00
2022-09-24T02:37:15.766Z,0.00
2022-09-24T02:37:50.505Z,0.00
2022-09-24T02:38:22.531Z,0.00
2022-09-24T02:38:54.430Z,0.00
2022-09-24T02:39:26.160Z,0.00
2022-09-24T02:39:58.435Z,0.00
2022-09-24T02:40:30.643Z,0.00
2022-09-24T02:40:53.805Z,0.00
2022-09-24T02:41:16.243Z,0.00
2022-09-24T02:41:50.467Z,0.00
2022-09-24T02:42:22.536Z,0.00
2022-09-24T02:42:56.968Z,0.00
2022-09-24T02:43:26.112Z,0.00
2022-09-24T02:43:58.825Z,0.00
2022-09-24T02:44:30.496Z,0.00
2022-09-24T02:44:53.882Z,0.00
2022-09-24T02:45:16.190Z,0.00
2022-09-24T02:45:50.539Z,0.00
2022-09-24T02:46:22.609Z,0.00
2022-09-24T02:46:54.542Z,0.00
2022-09-24T02:47:26.098Z,0.00
2022-09-24T02:47:58.471Z,0.00
2022-09-24T02:48:30.532Z,0.00
2022-09-24T02:48:53.994Z,0.00
2022-09-24T02:49:16.371Z,0.00
2022-09-24T02:49:56.041Z,0.00
2022-09-24T02:50:22.395Z,0.00
2022-09-24T02:50:54.690Z,0.00
2022-09-24T02:51:25.958Z,0.00
2022-09-24T02:51:58.479Z,0.00
2022-09-24T02:52:30.524Z,0.00
2022-09-24T02:52:53.640Z,0.00
2022-09-24T02:53:16.042Z,0.00
2022-09-24T02:53:50.547Z,0.00
2022-09-24T02:54:22.527Z,0.00
2022-09-24T02:54:54.527Z,0.00
2022-09-24T02:55:26.149Z,0.00
2022-09-24T02:55:58.447Z,0.00
2022-09-24T02:56:30.445Z,0.00
2022-09-24T02:56:53.844Z,0.00
2022-09-24T02:57:15.731Z,0.00
2022-09-24T02:57:50.492Z,0.00
2022-09-24T02:58:22.751Z,0.00
2022-09-24T02:58:54.456Z,0.00
2022-09-24T02:59:26.041Z,0.00
2022-09-24T02:59:58.934Z,0.00
2022-09-24T03:00:30.762Z,0.00
2022-09-24T03:00:53.774Z,0.00
2022-09-24T03:01:16.102Z,0.00
2022-09-24T03:01:50.738Z,0.00
2022-09-24T03:02:22.661Z,0.00
2022-09-24T03:03:02.108Z,0.00
2022-09-24T03:03:23.399Z,0.00
2022-09-24T03:03:59.510Z,0.00
2022-09-24T03:04:30.937Z,0.00
2022-09-24T03:04:53.826Z,0.00
2022-09-24T03:05:16.022Z,0.00
2022-09-24T03:05:50.458Z,0.00
2022-09-24T03:06:22.450Z,0.00
2022-09-24T03:06:54.890Z,0.00
2022-09-24T03:07:26.751Z,0.00
2022-09-24T03:07:59.481Z,0.00
2022-09-24T03:08:31.793Z,0.00
2022-09-24T03:08:54.518Z,0.00
2022-09-24T03:09:17.453Z,0.00
2022-09-24T03:09:50.776Z,0.00
2022-09-24T03:10:22.584Z,0.00
2022-09-24T03:10:55.757Z,0.00
2022-09-24T03:11:27.669Z,0.00
2022-09-24T03:11:59.000Z,0.00
2022-09-24T03:12:32.341Z,0.00
2022-09-24T03:12:54.720Z,0.00
2022-09-24T03:13:17.633Z,0.00
2022-09-24T03:13:50.340Z,0.00
2022-09-24T03:14:23.686Z,0.00
2022-09-24T03:14:54.538Z,0.00
2022-09-24T03:15:26.546Z,0.00
2022-09-24T03:15:58.714Z,0.00
2022-09-24T03:16:30.959Z,0.00
2022-09-24T03:16:53.570Z,0.00
2022-09-24T03:17:16.077Z,0.00
2022-09-24T03:17:55.145Z,0.00
2022-09-24T03:18:16.927Z,0.00
2022-09-24T03:18:54.649Z,0.00
2022-09-24T03:19:25.980Z,0.00
2022-09-24T03:19:58.490Z,0.00
2022-09-24T03:20:30.435Z,0.00
2022-09-24T03:20:53.057Z,0.00
2022-09-24T03:21:15.667Z,0.00
2022-09-24T03:21:50.608Z,0.00
2022-09-24T03:22:23.801Z,0.00
2022-09-24T03:22:54.426Z,0.00
2022-09-24T03:23:26.088Z,0.00
2022-09-24T03:23:58.420Z,0.00
2022-09-24T03:24:31.848Z,0.00
2022-09-24T03:24:53.347Z,0.00
2022-09-24T03:25:15.854Z,0.00
2022-09-24T03:25:50.490Z,0.00
2022-09-24T03:26:22.495Z,0.00
2022-09-24T03:26:54.568Z,0.00
2022-09-24T03:27:26.050Z,0.00
2022-09-24T03:27:58.466Z,0.00
2022-09-24T03:28:30.558Z,0.00
2022-09-24T03:28:53.361Z,0.00
2022-09-24T03:29:15.719Z,0.00
2022-09-24T03:29:50.463Z,0.00
2022-09-24T03:30:22.625Z,0.00
2022-09-24T03:30:57.882Z,0.00
2022-09-24T03:31:26.139Z,0.00
2022-09-24T03:31:58.644Z,0.00
2022-09-24T03:32:30.346Z,0.00
2022-09-24T03:32:53.166Z,0.00
2022-09-24T03:33:15.744Z,0.00
2022-09-24T03:33:50.706Z,0.00
2022-09-24T03:34:23.972Z,0.00
2022-09-24T03:34:54.323Z,0.00
2022-09-24T03:35:26.003Z,0.00
2022-09-24T03:35:58.563Z,0.00
2022-09-24T03:36:30.465Z,0.00
2022-09-24T03:36:54.516Z,0.00
2022-09-24T03:37:15.245Z,0.00
2022-09-24T03:37:50.479Z,0.00
2022-09-24T03:38:22.279Z,0.00
2022-09-24T03:38:54.610Z,0.00
2022-09-24T03:39:26.043Z,0.00
2022-09-24T03:39:58.339Z,0.00
2022-09-24T03:40:30.401Z,0.00
2022-09-24T03:40:53.110Z,0.00
2022-09-24T03:41:15.298Z,0.00
2022-09-24T03:41:50.432Z,0.00
2022-09-24T03:42:25.905Z,0.00
2022-09-24T03:42:49.675Z,0.00
2022-09-24T03:43:27.344Z,0.00
2022-09-24T03:43:58.409Z,0.00
2022-09-24T03:44:32.126Z,0.00
2022-09-24T03:44:54.392Z,0.00
2022-09-24T03:45:17.061Z,0.00
2022-09-24T03:45:52.657Z,0.00
2022-09-24T03:46:22.752Z,0.00
2022-09-24T03:46:54.850Z,0.00
2022-09-24T03:47:26.393Z,0.00
2022-09-24T03:47:58.917Z,0.00
2022-09-24T03:48:31.941Z,0.00
2022-09-24T03:48:55.618Z,0.00
2022-09-24T03:49:18.519Z,0.00
2022-09-24T03:49:52.030Z,0.00
2022-09-24T03:50:24.609Z,0.00
2022-09-24T03:50:55.386Z,0.00
2022-09-24T03:51:26.304Z,0.00
2022-09-24T03:51:58.331Z,0.00
2022-09-24T03:52:30.863Z,0.00
2022-09-24T03:52:53.388Z,0.00
2022-09-24T03:53:15.894Z,0.00
2022-09-24T03:53:52.058Z,0.00
2022-09-24T03:54:22.880Z,0.00
2022-09-24T03:54:55.463Z,0.00
2022-09-24T03:55:26.354Z,0.00
2022-09-24T03:56:00.493Z,0.00
2022-09-24T03:56:32.871Z,0.00
2022-09-24T03:56:54.011Z,0.00
2022-09-24T03:57:17.243Z,0.00
2022-09-24T03:57:51.297Z,0.00
2022-09-24T03:58:23.108Z,0.00
2022-09-24T03:58:54.444Z,0.00
2022-09-24T03:59:26.256Z,0.00
2022-09-24T03:59:58.437Z,0.00
2022-09-24T04:00:30.534Z,0.00
2022-09-24T04:00:53.078Z,0.00
2022-09-24T04:01:15.448Z,0.00
2022-09-24T04:01:50.728Z,0.00
2022-09-24T04:02:22.734Z,0.00
2022-09-24T04:02:56.406Z,0.00
2022-09-24T04:03:26.465Z,0.00
2022-09-24T04:03:58.714Z,0.00
2022-09-24T04:04:30.625Z,0.00
2022-09-24T04:04:53.308Z,0.00
2022-09-24T04:05:16.725Z,0.00
2022-09-24T04:05:50.436Z,0.00
2022-09-24T04:06:25.944Z,0.00
2022-09-24T04:06:54.633Z,0.00
2022-09-24T04:07:26.187Z,0.00
2022-09-24T04:07:58.417Z,0.00
2022-09-24T04:08:30.785Z,0.00
2022-09-24T04:08:53.530Z,0.00
2022-09-24T04:09:16.295Z,0.00
2022-09-24T04:09:52.826Z,0.00
2022-09-24T04:10:22.787Z,0.00
2022-09-24T04:10:54.920Z,0.00
2022-09-24T04:11:26.138Z,0.00
2022-09-24T04:11:59.419Z,0.00
2022-09-24T04:12:31.106Z,0.00
2022-09-24T04:12:53.781Z,0.00
2022-09-24T04:13:16.526Z,0.00
2022-09-24T04:13:51.194Z,0.00
2022-09-24T04:14:24.627Z,0.00
2022-09-24T04:14:55.772Z,0.00
2022-09-24T04:15:27.406Z,0.00
2022-09-24T04:15:58.466Z,0.00
2022-09-24T04:16:30.608Z,0.00
2022-09-24T04:16:53.228Z,0.00
2022-09-24T04:17:15.816Z,0.00
2022-09-24T04:17:51.223Z,0.00
2022-09-24T04:18:23.023Z,0.00
2022-09-24T04:18:54.699Z,0.00
2022-09-24T04:19:26.555Z,0.00
2022-09-24T04:19:58.377Z,0.00
2022-09-24T04:20:30.432Z,0.00
2022-09-24T04:20:53.125Z,0.00
2022-09-24T04:21:15.873Z,0.00
2022-09-24T04:21:51.702Z,0.00
2022-09-24T04:22:23.976Z,0.00
2022-09-24T04:22:55.196Z,0.00
2022-09-24T04:23:28.538Z,0.00
2022-09-24T04:24:00.610Z,0.00
2022-09-24T04:24:30.773Z,0.00
2022-09-24T04:24:53.345Z,0.00
2022-09-24T04:25:15.938Z,0.00
2022-09-24T04:25:51.538Z,0.00
2022-09-24T04:26:23.304Z,0.00
2022-09-24T04:26:54.914Z,0.00
2022-09-24T04:27:26.142Z,0.00
2022-09-24T04:27:58.810Z,0.00
2022-09-24T04:28:30.364Z,0.00
2022-09-24T04:28:53.050Z,0.00
2022-09-24T04:29:15.819Z,0.00
2022-09-24T04:29:50.544Z,0.00
2022-09-24T04:30:22.422Z,0.00
2022-09-24T04:30:55.066Z,0.00
2022-09-24T04:31:26.882Z,0.00
2022-09-24T04:31:58.430Z,0.00
2022-09-24T04:32:33.047Z,0.00
2022-09-24T04:32:53.401Z,0.00
2022-09-24T04:33:16.065Z,0.00
2022-09-24T04:33:52.018Z,0.00
2022-09-24T04:34:22.518Z,0.00
2022-09-24T04:34:58.244Z,0.00
2022-09-24T04:35:26.764Z,0.00
2022-09-24T04:35:58.893Z,0.00
2022-09-24T04:36:31.183Z,0.00
2022-09-24T04:36:53.826Z,0.00
2022-09-24T04:37:16.507Z,0.00
2022-09-24T04:37:50.601Z,0.00
2022-09-24T04:38:22.948Z,0.00
2022-09-24T04:38:54.533Z,0.00
2022-09-24T04:39:26.549Z,0.00
2022-09-24T04:39:58.463Z,0.00
2022-09-24T04:40:30.780Z,0.00
2022-09-24T04:40:53.275Z,0.00
2022-09-24T04:41:16.404Z,0.00
2022-09-24T04:41:51.277Z,0.00
2022-09-24T04:42:23.163Z,0.00
2022-09-24T04:42:56.634Z,0.00
2022-09-24T04:43:26.138Z,0.00
2022-09-24T04:44:03.533Z,0.00
2022-09-24T04:44:30.364Z,0.00
2022-09-24T04:44:56.015Z,0.00
2022-09-24T04:45:17.530Z,0.00
2022-09-24T04:45:50.751Z,0.00
2022-09-24T04:46:22.935Z,0.00
2022-09-24T04:46:54.446Z,0.00
2022-09-24T04:47:27.623Z,0.00
2022-09-24T04:48:02.854Z,0.00
2022-09-24T04:48:30.852Z,0.00
2022-09-24T04:48:53.675Z,0.00
2022-09-24T04:49:15.973Z,0.00
2022-09-24T04:49:50.764Z,0.00
2022-09-24T04:50:22.696Z,0.00
2022-09-24T04:50:56.561Z,0.00
2022-09-24T04:51:26.347Z,0.00
2022-09-24T04:51:58.824Z,0.00
2022-09-24T04:52:30.422Z,0.00
2022-09-24T04:52:53.079Z,0.00
2022-09-24T04:53:16.530Z,0.00
2022-09-24T04:53:50.822Z,0.00
2022-09-24T04:54:24.346Z,0.00
2022-09-24T04:54:55.891Z,0.00
2022-09-24T04:55:27.580Z,0.00
2022-09-24T04:55:59.110Z,0.00
2022-09-24T04:56:31.280Z,0.00
2022-09-24T04:56:53.689Z,0.00
2022-09-24T04:57:16.236Z,0.00
2022-09-24T04:57:51.106Z,0.00
2022-09-24T04:58:24.981Z,0.00
2022-09-24T04:58:54.476Z,0.00
2022-09-24T04:59:26.149Z,0.00
2022-09-24T04:59:58.468Z,0.00
2022-09-24T05:00:30.450Z,0.00
2022-09-24T05:00:53.067Z,0.00
2022-09-24T05:01:17.689Z,0.00
2022-09-24T05:01:50.732Z,0.00
2022-09-24T05:02:22.582Z,0.00
2022-09-24T05:02:56.304Z,0.00
2022-09-24T05:03:27.582Z,0.00
2022-09-24T05:03:58.709Z,0.00
2022-09-24T05:04:30.712Z,0.00
2022-09-24T05:04:53.331Z,0.00
2022-09-24T05:05:16.069Z,0.00
2022-09-24T05:05:50.449Z,0.00
2022-09-24T05:06:22.356Z,0.00
2022-09-24T05:06:54.829Z,0.00
2022-09-24T05:07:27.598Z,0.00
2022-09-24T05:07:58.477Z,0.00
2022-09-24T05:08:30.412Z,0.00
2022-09-24T05:08:53.134Z,0.00
2022-09-24T05:09:16.959Z,0.00
2022-09-24T05:09:50.433Z,0.00
2022-09-24T05:10:23.662Z,0.00
2022-09-24T05:10:54.461Z,0.00
2022-09-24T05:11:26.362Z,0.00
2022-09-24T05:12:06.793Z,0.00
2022-09-24T05:12:29.169Z,0.00
2022-09-24T05:12:51.819Z,0.00
2022-09-24T05:13:14.657Z,0.00
2022-09-24T05:13:51.687Z,0.00
2022-09-24T05:14:23.301Z,0.00
2022-09-24T05:14:55.302Z,0.00
2022-09-24T05:15:27.144Z,0.00
2022-09-24T05:15:59.421Z,0.00
2022-09-24T05:16:30.711Z,0.00
2022-09-24T05:16:53.073Z,0.00
2022-09-24T05:17:15.844Z,0.00
2022-09-24T05:17:51.297Z,0.00
2022-09-24T05:18:23.163Z,0.00
2022-09-24T05:18:54.507Z,0.00
2022-09-24T05:19:26.168Z,0.00
2022-09-24T05:19:59.162Z,0.00
2022-09-24T05:20:30.957Z,0.00
2022-09-24T05:20:53.639Z,0.00
2022-09-24T05:21:16.059Z,0.00
2022-09-24T05:21:50.821Z,0.00
2022-09-24T05:22:28.740Z,0.00
2022-09-24T05:22:55.267Z,0.00
2022-09-24T05:23:26.481Z,0.00
2022-09-24T05:23:59.957Z,0.00
2022-09-24T05:24:30.607Z,0.00
2022-09-24T05:24:53.686Z,0.00
2022-09-24T05:25:16.872Z,0.00
2022-09-24T05:25:51.039Z,0.00
2022-09-24T05:26:22.555Z,0.00
2022-09-24T05:26:54.410Z,0.00
2022-09-24T05:27:26.405Z,0.00
2022-09-24T05:27:58.735Z,0.00
2022-09-24T05:28:30.559Z,0.00
2022-09-24T05:28:53.433Z,0.00
2022-09-24T05:29:15.470Z,0.00
2022-09-24T05:29:50.562Z,0.00
2022-09-24T05:30:22.768Z,0.00
2022-09-24T05:30:55.306Z,0.00
2022-09-24T05:31:26.649Z,0.00
2022-09-24T05:31:59.064Z,0.00
2022-09-24T05:32:30.489Z,0.00
2022-09-24T05:32:53.221Z,0.00
2022-09-24T05:33:16.051Z,0.00
2022-09-24T05:33:51.057Z,0.00
2022-09-24T05:34:22.401Z,0.00
2022-09-24T05:34:54.517Z,0.00
2022-09-24T05:35:27.194Z,0.00
2022-09-24T05:35:58.688Z,0.00
2022-09-24T05:36:30.922Z,0.00
2022-09-24T05:36:53.544Z,0.00
2022-09-24T05:37:16.459Z,0.00
2022-09-24T05:37:51.128Z,0.00
2022-09-24T05:38:23.055Z,0.00
2022-09-24T05:38:55.025Z,0.00
2022-09-24T05:39:29.999Z,0.00
2022-09-24T05:39:58.883Z,0.00
2022-09-24T05:40:30.738Z,0.00
2022-09-24T05:40:53.328Z,0.00
2022-09-24T05:41:16.218Z,1.22
2022-09-24T05:41:50.879Z,0.36
2022-09-24T05:42:22.710Z,0.85
2022-09-24T05:42:56.373Z,0.85
2022-09-24T05:43:26.846Z,0.85
2022-09-24T05:43:58.491Z,1.22
2022-09-24T05:44:30.520Z,2.94
2022-09-24T05:44:53.268Z,2.57
2022-09-24T05:45:17.022Z,2.94
2022-09-24T05:45:51.902Z,3.43
2022-09-24T05:46:22.866Z,2.94
2022-09-24T05:46:54.643Z,3.79
2022-09-24T05:47:26.264Z,4.28
2022-09-24T05:47:58.638Z,4.28
2022-09-24T05:48:31.045Z,5.63
2022-09-24T05:48:54.096Z,5.14
2022-09-24T05:49:16.115Z,5.63
2022-09-24T05:49:51.754Z,5.63
2022-09-24T05:50:22.885Z,6.48
2022-09-24T05:50:55.698Z,5.99
2022-09-24T05:51:26.318Z,5.99
2022-09-24T05:51:58.938Z,6.48
2022-09-24T05:52:30.714Z,6.85
2022-09-24T05:52:53.337Z,6.85
2022-09-24T05:53:15.752Z,7.34
2022-09-24T05:53:51.230Z,6.85
2022-09-24T05:54:22.695Z,7.34
2022-09-24T05:54:54.559Z,7.70
2022-09-24T05:55:31.466Z,8.19
2022-09-24T05:55:58.407Z,8.19
2022-09-24T05:56:30.461Z,8.56
2022-09-24T05:56:55.539Z,8.56
2022-09-24T05:57:15.997Z,9.05
2022-09-24T05:57:50.509Z,9.05
2022-09-24T05:58:22.490Z,8.56
2022-09-24T05:58:54.423Z,8.56
2022-09-24T05:59:26.407Z,8.19
2022-09-24T05:59:58.319Z,8.19
2022-09-24T06:00:30.824Z,9.05
2022-09-24T06:00:53.468Z,9.54
2022-09-24T06:01:15.945Z,9.91
2022-09-24T06:01:51.319Z,9.54
2022-09-24T06:02:23.424Z,9.91
2022-09-24T06:02:59.013Z,10.77
2022-09-24T06:03:27.129Z,11.62
2022-09-24T06:03:58.670Z,11.62
2022-09-24T06:04:30.907Z,12.11
2022-09-24T06:04:53.482Z,12.48
2022-09-24T06:05:16.109Z,12.97
2022-09-24T06:05:50.521Z,13.82
2022-09-24T06:06:22.491Z,12.97
2022-09-24T06:06:54.566Z,12.48
2022-09-24T06:07:27.367Z,13.33
2022-09-24T06:07:58.847Z,13.33
2022-09-24T06:08:30.724Z,13.82
2022-09-24T06:08:53.339Z,13.33
2022-09-24T06:09:15.807Z,13.33
2022-09-24T06:09:50.735Z,13.33
2022-09-24T06:10:22.573Z,13.33
2022-09-24T06:10:55.106Z,12.48
2022-09-24T06:11:26.301Z,12.97
2022-09-24T06:11:58.618Z,13.82
2022-09-24T06:12:31.120Z,12.48
2022-09-24T06:12:53.635Z,12.97
2022-09-24T06:13:17.213Z,12.97
2022-09-24T06:13:50.576Z,13.33
2022-09-24T06:14:24.746Z,12.97
2022-09-24T06:14:54.515Z,12.97
2022-09-24T06:15:26.538Z,13.82
2022-09-24T06:15:58.920Z,13.82
2022-09-24T06:16:30.947Z,14.68
2022-09-24T06:16:53.445Z,14.68
2022-09-24T06:17:16.283Z,15.17
2022-09-24T06:18:01.213Z,16.02
2022-09-24T06:18:17.198Z,16.02
2022-09-24T06:18:54.784Z,15.53
2022-09-24T06:19:26.196Z,16.39
2022-09-24T06:19:58.726Z,17.25
2022-09-24T06:20:30.437Z,17.73
2022-09-24T06:20:53.183Z,18.11
2022-09-24T06:21:15.520Z,18.60
2022-09-24T06:21:51.864Z,19.08
2022-09-24T06:22:29.138Z,18.60
2022-09-24T06:22:54.315Z,20.31
2022-09-24T06:23:26.343Z,20.80
2022-09-24T06:23:59.002Z,20.31
2022-09-24T06:24:30.486Z,20.80
2022-09-24T06:24:54.044Z,21.16
2022-09-24T06:25:16.395Z,21.65
2022-09-24T06:25:50.442Z,22.02
2022-09-24T06:26:22.441Z,22.51
2022-09-24T06:26:54.322Z,23.36
2022-09-24T06:27:26.333Z,23.36
2022-09-24T06:27:58.480Z,24.22
2022-09-24T06:28:30.503Z,24.22
2022-09-24T06:28:53.459Z,24.71
2022-09-24T06:29:16.041Z,25.07
2022-09-24T06:29:50.354Z,25.07
2022-09-24T06:30:22.399Z,25.94
2022-09-24T06:30:55.988Z,26.42
2022-09-24T06:31:26.252Z,26.79
2022-09-24T06:31:58.296Z,27.28
2022-09-24T06:32:30.321Z,27.28
2022-09-24T06:32:53.107Z,28.14
2022-09-24T06:33:15.451Z,28.14
2022-09-24T06:33:50.465Z,28.99
2022-09-24T06:34:22.364Z,29.48
2022-09-24T06:34:58.877Z,29.48
2022-09-24T06:35:26.357Z,30.70
2022-09-24T06:35:58.467Z,31.19
2022-09-24T06:36:30.532Z,31.56
2022-09-24T06:36:53.042Z,31.19
2022-09-24T06:37:15.448Z,32.05
2022-09-24T06:37:50.726Z,32.42
2022-09-24T06:38:22.328Z,33.39